createdAt,value
2018-07-15T00:00:50.785Z,82.6
2018-07-15T00:02:49.967Z,82.4
2018-07-15T00:04:50.587Z,82.3
2018-07-15T00:06:49.998Z,82.8
2018-07-15T00:08:50.230Z,82.4
2018-07-15T00:10:50.373Z,83.0
2018-07-15T00:12:50.727Z,82.7
2018-07-15T00:14:51.013Z,82.8
2018-07-15T00:16:50.295Z,82.8
2018-07-15T00:18:50.743Z,83.0
2018-07-15T00:20:50.962Z,83.1
2018-07-15T00:22:50.096Z,83.2
2018-07-15T00:24:50.345Z,83.2
2018-07-15T00:26:50.633Z,83.4
2018-07-15T00:28:50.799Z,83.7
2018-07-15T00:30:50.007Z,83.6
2018-07-15T00:32:50.156Z,83.9
2018-07-15T00:34:50.531Z,84.1
2018-07-15T00:36:50.794Z,84.2
2018-07-15T00:38:50.103Z,84.4
2018-07-15T00:40:50.353Z,84.7
2018-07-15T00:42:50.499Z,85.1
2018-07-15T00:44:50.639Z,85.3
2018-07-15T00:46:50.015Z,85.4
2018-07-15T00:48:50.211Z,85.8
2018-07-15T00:50:50.320Z,85.8
2018-07-15T00:52:50.655Z,85.9
2018-07-15T00:54:50.798Z,85.9
2018-07-15T00:56:50.054Z,85.6
2018-07-15T00:58:50.208Z,86.0
2018-07-15T01:00:50.401Z,86.3
2018-07-15T01:02:50.353Z,86.2
2018-07-15T01:04:50.846Z,86.3
2018-07-15T01:06:50.150Z,86.6
2018-07-15T01:08:50.278Z,86.3
2018-07-15T01:10:50.458Z,86.6
2018-07-15T01:12:50.606Z,86.7
2018-07-15T01:14:50.693Z,86.8
2018-07-15T01:16:49.970Z,86.9
2018-07-15T01:18:50.522Z,86.8
2018-07-15T01:20:50.653Z,86.9
2018-07-15T01:22:50.049Z,87.1
2018-07-15T01:24:50.167Z,87.0
2018-07-15T01:26:50.487Z,87.3
2018-07-15T01:28:50.866Z,87.5
2018-07-15T01:30:50.060Z,87.4
2018-07-15T01:32:50.227Z,87.4
2018-07-15T01:34:50.664Z,87.5
2018-07-15T01:36:50.918Z,87.2
2018-07-15T01:38:50.240Z,87.3
2018-07-15T01:40:50.405Z,87.4
2018-07-15T01:42:50.548Z,87.5
2018-07-15T01:44:50.684Z,87.4
2018-07-15T01:46:50.029Z,87.4
2018-07-15T01:48:50.235Z,87.7
2018-07-15T01:50:50.404Z,87.7
2018-07-15T01:52:50.537Z,87.6
2018-07-15T01:54:50.756Z,87.8
2018-07-15T01:56:50.008Z,87.9
2018-07-15T01:58:50.187Z,87.5
2018-07-15T02:00:50.357Z,87.5
2018-07-15T02:02:50.481Z,87.3
2018-07-15T02:04:50.905Z,87.1
2018-07-15T02:06:50.128Z,87.2
2018-07-15T02:08:50.469Z,87.2
2018-07-15T02:10:50.649Z,87.4
2018-07-15T02:12:49.971Z,87.5
2018-07-15T02:14:50.167Z,87.8
2018-07-15T02:16:50.561Z,88.1
2018-07-15T02:18:50.787Z,88.1
2018-07-15T02:20:50.051Z,88.3
2018-07-15T02:22:50.213Z,88.5
2018-07-15T02:24:50.356Z,88.8
2018-07-15T02:26:50.658Z,88.8
2018-07-15T02:28:50.766Z,88.6
2018-07-15T02:30:50.126Z,88.7
2018-07-15T02:32:50.310Z,88.6
2018-07-15T02:34:50.909Z,88.9
2018-07-15T02:36:50.793Z,89.1
2018-07-15T02:38:50.110Z,89.8
2018-07-15T02:40:50.307Z,89.4
2018-07-15T02:42:50.691Z,89.3
2018-07-15T02:44:49.954Z,89.4
2018-07-15T02:46:50.550Z,89.8
2018-07-15T02:48:50.735Z,89.7
2018-07-15T02:50:49.976Z,89.5
2018-07-15T02:52:50.261Z,89.7
2018-07-15T02:54:50.365Z,89.8
2018-07-15T02:56:50.739Z,89.8
2018-07-15T02:58:50.862Z,89.9
2018-07-15T03:00:50.138Z,90.1
2018-07-15T03:02:50.295Z,90.1
2018-07-15T03:04:50.624Z,90.1
2018-07-15T03:06:50.033Z,90.1
2018-07-15T03:08:50.214Z,90.2
2018-07-15T03:10:50.364Z,90.6
2018-07-15T03:12:50.659Z,90.7
2018-07-15T03:14:49.960Z,90.7
2018-07-15T03:16:50.311Z,90.6
2018-07-15T03:18:50.500Z,90.6
2018-07-15T03:20:50.653Z,91.0
2018-07-15T03:22:50.874Z,90.8
2018-07-15T03:24:50.207Z,90.9
2018-07-15T03:26:50.525Z,90.8
2018-07-15T03:28:50.663Z,91.1
2018-07-15T03:30:50.818Z,90.9
2018-07-15T03:32:50.020Z,90.7
2018-07-15T03:34:50.553Z,90.8
2018-07-15T03:36:50.844Z,90.8
2018-07-15T03:38:50.018Z,90.8
2018-07-15T03:40:50.192Z,90.8
2018-07-15T03:42:50.365Z,90.7
2018-07-15T03:44:50.463Z,90.4
2018-07-15T03:46:50.847Z,90.7
2018-07-15T03:48:50.057Z,91.0
2018-07-15T03:50:50.186Z,90.8
2018-07-15T03:52:50.431Z,90.6
2018-07-15T03:54:50.653Z,90.7
2018-07-15T03:56:50.046Z,90.8
2018-07-15T03:58:50.294Z,90.6
2018-07-15T04:00:51.254Z,90.5
2018-07-15T04:02:50.411Z,90.3
2018-07-15T04:04:50.846Z,90.2
2018-07-15T04:06:50.195Z,90.0
2018-07-15T04:08:50.878Z,90.0
2018-07-15T04:10:50.047Z,90.2
2018-07-15T04:12:50.198Z,89.9
2018-07-15T04:14:50.340Z,89.5
2018-07-15T04:16:50.597Z,89.5
2018-07-15T04:18:50.787Z,88.7
2018-07-15T04:20:50.041Z,88.9
2018-07-15T04:22:50.174Z,88.2
2018-07-15T04:24:50.314Z,88.5
2018-07-15T04:26:50.729Z,88.2
2018-07-15T04:28:50.995Z,88.1
2018-07-15T04:30:50.220Z,88.6
2018-07-15T04:32:50.378Z,87.3
2018-07-15T04:34:50.700Z,87.1
2018-07-15T04:36:50.059Z,86.7
2018-07-15T04:38:50.193Z,86.5
2018-07-15T04:40:50.367Z,85.8
2018-07-15T04:42:50.472Z,85.4
2018-07-15T04:44:50.726Z,85.3
2018-07-15T04:46:50.058Z,85.6
2018-07-15T04:48:50.202Z,84.9
2018-07-15T04:50:50.338Z,84.5
2018-07-15T04:52:50.489Z,84.2
2018-07-15T04:54:50.572Z,83.5
2018-07-15T04:56:50.909Z,83.1
2018-07-15T04:58:50.112Z,82.5
2018-07-15T05:00:50.262Z,82.4
2018-07-15T05:02:50.399Z,83.3
2018-07-15T05:04:50.789Z,82.2
2018-07-15T05:06:50.247Z,81.4
2018-07-15T05:08:50.380Z,80.8
2018-07-15T05:10:50.573Z,80.5
2018-07-15T05:12:50.700Z,80.4
2018-07-15T05:14:50.793Z,80.1
2018-07-15T05:16:50.334Z,79.2
2018-07-15T05:18:50.451Z,78.9
2018-07-15T05:20:50.625Z,78.1
2018-07-15T05:22:50.819Z,77.2
2018-07-15T05:24:50.217Z,77.4
2018-07-15T05:26:50.607Z,75.5
2018-07-15T05:28:50.752Z,75.5
2018-07-15T05:30:50.920Z,74.9
2018-07-15T05:32:50.060Z,74.7
2018-07-15T05:34:50.748Z,73.2
2018-07-15T05:36:50.929Z,71.9
2018-07-15T05:38:50.058Z,71.6
2018-07-15T05:40:50.205Z,72.1
2018-07-15T05:42:50.407Z,71.9
2018-07-15T05:44:50.699Z,72.7
2018-07-15T05:46:49.988Z,72.6
2018-07-15T05:48:50.156Z,72.4
2018-07-15T05:50:50.328Z,71.4
2018-07-15T05:52:50.525Z,71.4
2018-07-15T05:54:50.730Z,71.8
2018-07-15T05:56:50.047Z,70.9
2018-07-15T05:58:50.190Z,69.9
2018-07-15T06:00:50.350Z,69.6
2018-07-15T06:02:50.485Z,69.6
2018-07-15T06:04:50.874Z,70.5
2018-07-15T06:06:50.255Z,69.1
2018-07-15T06:08:50.497Z,69.0
2018-07-15T06:10:51.500Z,67.1
2018-07-15T06:12:50.767Z,67.2
2018-07-15T06:14:49.970Z,66.8
2018-07-15T06:16:50.292Z,67.2
2018-07-15T06:18:50.531Z,67.6
2018-07-15T06:20:50.734Z,67.4
2018-07-15T06:22:51.980Z,66.1
2018-07-15T06:24:50.244Z,64.6
2018-07-15T06:26:50.605Z,64.0
2018-07-15T06:28:50.790Z,63.5
2018-07-15T06:30:50.033Z,62.9
2018-07-15T06:32:50.182Z,62.8
2018-07-15T06:34:50.640Z,62.1
2018-07-15T06:36:49.965Z,60.2
2018-07-15T06:38:50.123Z,60.0
2018-07-15T06:40:50.247Z,59.9
2018-07-15T06:42:50.518Z,61.7
2018-07-15T06:44:50.679Z,59.0
2018-07-15T06:46:50.088Z,58.9
2018-07-15T06:48:50.257Z,60.6
2018-07-15T06:50:50.427Z,59.6
2018-07-15T06:52:50.584Z,58.1
2018-07-15T06:54:50.750Z,56.7
2018-07-15T06:56:50.013Z,57.0
2018-07-15T06:58:50.210Z,56.3
2018-07-15T07:00:50.402Z,57.0
2018-07-15T07:02:50.549Z,57.4
2018-07-15T07:04:50.020Z,55.7
2018-07-15T07:06:50.326Z,55.8
2018-07-15T07:08:50.455Z,56.1
2018-07-15T07:10:50.651Z,56.4
2018-07-15T07:12:50.874Z,56.0
2018-07-15T07:14:50.050Z,56.3
2018-07-15T07:16:50.368Z,55.8
2018-07-15T07:18:50.507Z,54.9
2018-07-15T07:20:50.611Z,54.5
2018-07-15T07:22:49.987Z,55.1
2018-07-15T07:24:50.102Z,55.0
2018-07-15T07:26:50.353Z,54.9
2018-07-15T07:28:51.069Z,55.7
2018-07-15T07:30:50.234Z,55.8
2018-07-15T07:32:50.397Z,55.1
2018-07-15T07:34:50.819Z,57
2018-07-15T07:36:50.174Z,57
2018-07-15T07:38:51.160Z,57
2018-07-15T07:40:50.430Z,57
2018-07-15T07:42:50.592Z,57
2018-07-15T07:44:50.834Z,56
2018-07-15T07:46:50.351Z,57
2018-07-15T07:48:50.521Z,57
2018-07-15T07:50:50.647Z,57
2018-07-15T07:52:50.912Z,57
2018-07-15T07:54:50.137Z,57
2018-07-15T07:56:50.401Z,56
2018-07-15T07:58:50.570Z,56
2018-07-15T08:00:50.844Z,56
2018-07-15T08:02:50.084Z,57
2018-07-15T08:04:50.461Z,57
2018-07-15T08:06:50.770Z,57
2018-07-15T08:08:49.955Z,57
2018-07-15T08:10:50.190Z,55
2018-07-15T08:12:50.362Z,55
2018-07-15T08:14:50.641Z,55
2018-07-15T08:16:50.906Z,49.6
2018-07-15T08:18:50.052Z,50.2
2018-07-15T08:20:50.167Z,50.4
2018-07-15T08:22:50.353Z,49.6
2018-07-15T08:24:50.558Z,49.2
2018-07-15T08:26:49.954Z,50.2
2018-07-15T08:28:50.398Z,50.0
2018-07-15T08:30:50.595Z,49.5
2018-07-15T08:32:50.553Z,49.4
2018-07-15T08:34:50.145Z,48.5
2018-07-15T08:36:50.492Z,54
2018-07-15T08:38:50.738Z,54
2018-07-15T08:40:50.789Z,54
2018-07-15T08:42:50.948Z,53
2018-07-15T08:44:50.258Z,53
2018-07-15T08:46:50.699Z,52
2018-07-15T08:48:50.813Z,53
2018-07-15T08:50:50.011Z,52
2018-07-15T08:52:50.355Z,46.6
2018-07-15T08:54:50.499Z,48.6
2018-07-15T08:56:50.802Z,47.8
2018-07-15T08:58:50.109Z,46.9
2018-07-15T09:00:50.284Z,49
2018-07-15T09:02:50.464Z,50
2018-07-15T09:04:50.837Z,50
2018-07-15T09:06:50.244Z,51
2018-07-15T09:08:50.509Z,50
2018-07-15T09:10:50.704Z,50
2018-07-15T09:12:50.804Z,50
2018-07-15T09:14:50.064Z,48
2018-07-15T09:16:50.543Z,47
2018-07-15T09:18:50.696Z,46
2018-07-15T09:20:50.960Z,47
2018-07-15T09:22:50.091Z,47
2018-07-15T09:24:50.211Z,48
2018-07-15T09:26:50.622Z,48
2018-07-15T09:28:50.822Z,48
2018-07-15T09:30:50.013Z,48
2018-07-15T09:32:50.148Z,48
2018-07-15T09:34:50.576Z,47
2018-07-15T09:36:50.890Z,47
2018-07-15T09:38:50.123Z,47
2018-07-15T09:40:50.394Z,47
2018-07-15T09:42:50.485Z,47
2018-07-15T09:44:50.799Z,46
2018-07-15T09:46:50.072Z,47
2018-07-15T09:48:50.244Z,43
2018-07-15T09:50:50.370Z,43
2018-07-15T09:52:50.612Z,43
2018-07-15T09:54:50.784Z,43
2018-07-15T09:56:50.143Z,43
2018-07-15T09:58:50.376Z,43
2018-07-15T10:00:50.548Z,43
2018-07-15T10:02:50.559Z,43
2018-07-15T10:04:50.002Z,43
2018-07-15T10:06:50.345Z,43
2018-07-15T10:08:50.525Z,43
2018-07-15T10:10:50.593Z,42
2018-07-15T10:12:50.886Z,42
2018-07-15T10:14:50.044Z,42
2018-07-15T10:16:50.274Z,41
2018-07-15T10:18:50.649Z,41
2018-07-15T10:20:50.904Z,41
2018-07-15T10:22:50.084Z,41
2018-07-15T10:24:50.899Z,40
2018-07-15T10:26:50.217Z,41
2018-07-15T10:28:50.356Z,41
2018-07-15T10:30:50.570Z,41
2018-07-15T10:32:50.680Z,41
2018-07-15T10:34:50.145Z,41
2018-07-15T10:36:50.490Z,39
2018-07-15T10:38:50.604Z,39
2018-07-15T10:40:50.731Z,40
2018-07-15T10:42:49.936Z,39
2018-07-15T10:44:50.133Z,40
2018-07-15T10:46:50.475Z,40
2018-07-15T10:48:50.613Z,40
2018-07-15T10:50:50.760Z,40
2018-07-15T10:52:50.349Z,40
2018-07-15T10:54:50.548Z,41
2018-07-15T10:56:50.950Z,41
2018-07-15T10:58:50.105Z,41
2018-07-15T11:00:50.477Z,41
2018-07-15T11:02:50.647Z,41
2018-07-15T11:04:50.005Z,41
2018-07-15T11:06:50.436Z,40
2018-07-15T11:08:50.602Z,40
2018-07-15T11:10:50.797Z,40
2018-07-15T11:12:50.917Z,39
2018-07-15T11:14:50.020Z,39
2018-07-15T11:16:50.329Z,37
2018-07-15T11:18:50.522Z,37
2018-07-15T11:20:50.689Z,37
2018-07-15T11:22:50.829Z,36
2018-07-15T11:24:50.021Z,36
2018-07-15T11:26:50.337Z,35
2018-07-15T11:28:50.621Z,35
2018-07-15T11:30:51.665Z,35
2018-07-15T11:32:50.906Z,35
2018-07-15T11:34:50.284Z,35
2018-07-15T11:36:50.556Z,35
2018-07-15T11:38:50.778Z,35
2018-07-15T11:40:49.941Z,36
2018-07-15T11:42:50.100Z,35
2018-07-15T11:44:50.201Z,35
2018-07-15T11:46:50.506Z,35
2018-07-15T11:48:50.726Z,35
2018-07-15T11:50:50.986Z,34
2018-07-15T11:52:50.161Z,34
2018-07-15T11:54:50.360Z,34
2018-07-15T11:56:50.692Z,34
2018-07-15T11:58:50.830Z,34
2018-07-15T12:00:49.966Z,34
2018-07-15T12:02:50.141Z,34
2018-07-15T12:04:50.592Z,34
2018-07-15T12:06:50.786Z,30.3
2018-07-15T12:08:50.002Z,30.9
2018-07-15T12:10:50.200Z,33.6
2018-07-15T12:12:50.342Z,38.2
2018-07-15T12:14:50.484Z,46.2
2018-07-15T12:16:50.707Z,52.2
2018-07-15T12:18:50.928Z,54.8
2018-07-15T12:20:50.108Z,56.9
2018-07-15T12:22:50.316Z,55.4
2018-07-15T12:24:50.456Z,65.6
2018-07-15T12:26:50.860Z,69.4
2018-07-15T12:28:49.996Z,74.4
2018-07-15T12:30:50.105Z,76.7
2018-07-15T12:32:50.245Z,76.1
2018-07-15T12:34:50.579Z,76.1
2018-07-15T12:36:50.021Z,71.6
2018-07-15T12:38:50.208Z,76.0
2018-07-15T12:40:50.338Z,74.7
2018-07-15T12:42:50.509Z,72.4
2018-07-15T12:44:50.660Z,69.2
2018-07-15T12:46:50.088Z,69.2
2018-07-15T12:48:50.249Z,67.4
2018-07-15T12:50:50.351Z,63.1
2018-07-15T12:52:50.538Z,66.3
2018-07-15T12:54:50.673Z,55
2018-07-15T12:56:50.023Z,57
2018-07-15T12:58:50.234Z,56
2018-07-15T13:00:50.343Z,56
2018-07-15T13:02:50.691Z,55
2018-07-15T13:04:50.047Z,54
2018-07-15T13:06:50.350Z,54
2018-07-15T13:08:50.442Z,54
2018-07-15T13:10:50.592Z,54
2018-07-15T13:12:50.864Z,54
2018-07-15T13:14:50.002Z,54
2018-07-15T13:16:50.233Z,54
2018-07-15T13:18:50.552Z,54
2018-07-15T13:20:50.924Z,54
2018-07-15T13:22:50.068Z,53
2018-07-15T13:24:50.322Z,53
2018-07-15T13:26:50.633Z,52
2018-07-15T13:28:50.758Z,52
2018-07-15T13:30:50.053Z,52
2018-07-15T13:32:50.191Z,52
2018-07-15T13:34:50.723Z,51
2018-07-15T13:36:49.962Z,50
2018-07-15T13:38:50.081Z,50
2018-07-15T13:40:50.237Z,50
2018-07-15T13:42:50.423Z,45.1
2018-07-15T13:44:50.565Z,45.5
2018-07-15T13:46:50.810Z,45.1
2018-07-15T13:48:50.932Z,44.9
2018-07-15T13:50:50.167Z,46.2
2018-07-15T13:52:50.364Z,47.9
2018-07-15T13:54:50.466Z,48.6
2018-07-15T13:56:50.799Z,46.9
2018-07-15T13:58:50.040Z,47.6
2018-07-15T14:00:50.175Z,46.7
2018-07-15T14:02:50.557Z,47.3
2018-07-15T14:04:50.920Z,48.0
2018-07-15T14:06:50.236Z,48.1
2018-07-15T14:08:50.387Z,48.4
2018-07-15T14:10:50.587Z,47.2
2018-07-15T14:12:50.853Z,46.6
2018-07-15T14:14:49.972Z,46.4
2018-07-15T14:16:50.274Z,45.8
2018-07-15T14:18:50.511Z,46
2018-07-15T14:20:50.825Z,46
2018-07-15T14:22:49.979Z,46
2018-07-15T14:24:50.122Z,46
2018-07-15T14:26:50.429Z,45
2018-07-15T14:28:50.597Z,45
2018-07-15T14:30:50.758Z,45
2018-07-15T14:32:50.879Z,46
2018-07-15T14:34:50.335Z,46
2018-07-15T14:36:50.623Z,45
2018-07-15T14:38:50.737Z,44
2018-07-15T14:40:50.921Z,44
2018-07-15T14:42:50.161Z,44
2018-07-15T14:44:50.344Z,45
2018-07-15T14:46:50.679Z,45
2018-07-15T14:48:50.804Z,45
2018-07-15T14:50:50.033Z,45
2018-07-15T14:52:50.195Z,44
2018-07-15T14:54:50.466Z,44
2018-07-15T14:56:50.768Z,45
2018-07-15T14:58:50.919Z,45
2018-07-15T15:00:50.244Z,44
2018-07-15T15:02:50.384Z,44
2018-07-15T15:04:50.755Z,44
2018-07-15T15:06:50.053Z,44
2018-07-15T15:08:50.275Z,44
2018-07-15T15:10:50.395Z,44
2018-07-15T15:12:50.613Z,44
2018-07-15T15:14:50.796Z,44
2018-07-15T15:16:50.231Z,44
2018-07-15T15:18:50.450Z,43
2018-07-15T15:20:50.626Z,43
2018-07-15T15:22:50.730Z,43
2018-07-15T15:24:50.788Z,43
2018-07-15T15:26:50.231Z,43
2018-07-15T15:28:50.376Z,43
2018-07-15T15:30:50.601Z,43
2018-07-15T15:32:50.735Z,44
2018-07-15T15:34:50.189Z,44
2018-07-15T15:36:50.511Z,44
2018-07-15T15:38:50.760Z,44
2018-07-15T15:40:49.985Z,43
2018-07-15T15:42:50.228Z,43
2018-07-15T15:44:51.835Z,38.2
2018-07-15T15:46:50.155Z,39.1
2018-07-15T15:48:50.301Z,39.5
2018-07-15T15:50:50.457Z,40.2
2018-07-15T15:52:50.597Z,40.6
2018-07-15T15:54:50.732Z,40.5
2018-07-15T15:56:50.137Z,40.0
2018-07-15T15:58:50.252Z,39.7
2018-07-15T16:00:50.462Z,40.1
2018-07-15T16:02:50.665Z,40.2
2018-07-15T16:04:50.068Z,40.5
2018-07-15T16:06:50.624Z,39.6
2018-07-15T16:08:50.746Z,38.6
2018-07-15T16:10:50.832Z,39.0
2018-07-15T16:12:50.097Z,38.9
2018-07-15T16:14:50.225Z,38.5
2018-07-15T16:16:50.498Z,38.4
2018-07-15T16:18:50.655Z,42
2018-07-15T16:20:50.763Z,42
2018-07-15T16:22:50.932Z,42
2018-07-15T16:24:50.029Z,42
2018-07-15T16:26:50.327Z,42
2018-07-15T16:28:50.475Z,42
2018-07-15T16:30:50.655Z,42
2018-07-15T16:32:50.731Z,42
2018-07-15T16:34:50.154Z,42
2018-07-15T16:36:50.540Z,42
2018-07-15T16:38:50.635Z,42
2018-07-15T16:40:50.889Z,42
2018-07-15T16:42:49.986Z,42
2018-07-15T16:44:50.164Z,42
2018-07-15T16:46:50.498Z,42
2018-07-15T16:48:50.718Z,42
2018-07-15T16:50:50.914Z,42
2018-07-15T16:52:50.065Z,42
2018-07-15T16:54:50.332Z,42
2018-07-15T16:56:50.610Z,42
2018-07-15T16:58:50.764Z,42
2018-07-15T17:00:49.986Z,42
2018-07-15T17:02:50.207Z,42
2018-07-15T17:04:50.644Z,42
2018-07-15T17:06:51.376Z,42
2018-07-15T17:08:50.459Z,42
2018-07-15T17:10:50.661Z,42
2018-07-15T17:12:50.897Z,43
2018-07-15T17:14:49.993Z,42
2018-07-15T17:16:50.352Z,42
2018-07-15T17:18:50.582Z,42
2018-07-15T17:20:50.717Z,42
2018-07-15T17:22:50.823Z,42
2018-07-15T17:24:50.035Z,39.6
2018-07-15T17:26:50.234Z,39.9
2018-07-15T17:28:50.355Z,40.2
2018-07-15T17:30:50.600Z,39.6
2018-07-15T17:32:50.858Z,39.3
2018-07-15T17:34:50.383Z,40.4
2018-07-15T17:36:50.628Z,40.5
2018-07-15T17:38:50.864Z,42.0
2018-07-15T17:40:50.187Z,44.4
2018-07-15T17:42:50.358Z,43.2
2018-07-15T17:44:50.453Z,44.5
2018-07-15T17:46:50.752Z,42.8
2018-07-15T17:48:50.898Z,43.6
2018-07-15T17:50:50.068Z,43.3
2018-07-15T17:52:50.268Z,43.8
2018-07-15T17:54:50.421Z,43.5
2018-07-15T17:56:50.688Z,43.4
2018-07-15T17:58:50.712Z,44.3
2018-07-15T18:00:50.000Z,43.8
2018-07-15T18:02:50.158Z,43.7
2018-07-15T18:04:51.240Z,43.9
2018-07-15T18:06:50.644Z,44.1
2018-07-15T18:08:50.811Z,44.4
2018-07-15T18:10:50.093Z,44.2
2018-07-15T18:12:50.235Z,44.1
2018-07-15T18:14:50.411Z,44.3
2018-07-15T18:16:50.756Z,45.1
2018-07-15T18:18:50.917Z,47.6
2018-07-15T18:20:50.374Z,46.1
2018-07-15T18:22:50.675Z,46.6
2018-07-15T18:24:50.828Z,46.9
2018-07-15T18:26:50.119Z,46.5
2018-07-15T18:28:50.245Z,46.9
2018-07-15T18:30:50.430Z,45.9
2018-07-15T18:32:50.525Z,45.8
2018-07-15T18:34:50.888Z,46.7
2018-07-15T18:36:50.253Z,48.6
2018-07-15T18:38:50.406Z,50.1
2018-07-15T18:40:50.517Z,52.3
2018-07-15T18:42:50.783Z,54.2
2018-07-15T18:44:51.307Z,58.1
2018-07-15T18:46:50.674Z,59.5
2018-07-15T18:48:49.969Z,60.7
2018-07-15T18:50:50.151Z,61.1
2018-07-15T18:52:50.308Z,61.9
2018-07-15T18:54:50.455Z,62.9
2018-07-15T18:56:50.791Z,63.0
2018-07-15T18:58:49.987Z,63.1
2018-07-15T19:00:50.099Z,64.2
2018-07-15T19:02:50.209Z,64.8
2018-07-15T19:04:50.727Z,65.0
2018-07-15T19:06:50.119Z,65.7
2018-07-15T19:08:50.273Z,66.4
2018-07-15T19:10:50.460Z,66.7
2018-07-15T19:12:50.631Z,67.6
2018-07-15T19:14:50.745Z,68.3
2018-07-15T19:16:50.101Z,68.3
2018-07-15T19:18:50.217Z,69.0
2018-07-15T19:20:50.356Z,68.7
2018-07-15T19:22:50.568Z,68.7
2018-07-15T19:24:50.640Z,69.2
2018-07-15T19:26:49.945Z,68.9
2018-07-15T19:28:50.108Z,69.5
2018-07-15T19:30:50.176Z,68.9
2018-07-15T19:32:50.400Z,69.1
2018-07-15T19:34:49.954Z,70.9
2018-07-15T19:36:50.318Z,71.0
2018-07-15T19:38:50.540Z,70.5
2018-07-15T19:40:50.851Z,71.0
2018-07-15T19:42:50.039Z,71.4
2018-07-15T19:44:50.413Z,71.7
2018-07-15T19:46:50.629Z,72.1
2018-07-15T19:48:50.774Z,73.4
2018-07-15T19:50:49.970Z,73.3
2018-07-15T19:52:50.066Z,73.7
2018-07-15T19:54:50.233Z,74.8
2018-07-15T19:56:50.569Z,74.5
2018-07-15T19:58:50.673Z,73.8
2018-07-15T20:00:51.049Z,73.5
2018-07-15T20:02:50.277Z,73.9
2018-07-15T20:04:50.707Z,74.8
2018-07-15T20:06:50.693Z,75.8
2018-07-15T20:08:50.943Z,76.0
2018-07-15T20:10:50.102Z,76.0
2018-07-15T20:12:50.383Z,76.1
2018-07-15T20:14:50.625Z,77.2
2018-07-15T20:16:49.963Z,76.5
2018-07-15T20:18:50.095Z,75.7
2018-07-15T20:20:50.739Z,76.0
2018-07-15T20:22:50.079Z,76.5
2018-07-15T20:24:50.290Z,76.9
2018-07-15T20:26:50.549Z,76.8
2018-07-15T20:28:50.752Z,76.7
2018-07-15T20:30:50.946Z,77.4
2018-07-15T20:32:50.058Z,78.3
2018-07-15T20:34:50.496Z,79.0
2018-07-15T20:36:50.763Z,79.0
2018-07-15T20:38:50.964Z,79.8
2018-07-15T20:40:50.133Z,79.4
2018-07-15T20:42:50.298Z,79.3
2018-07-15T20:44:50.448Z,79.1
2018-07-15T20:46:50.744Z,79.0
2018-07-15T20:48:49.948Z,79.4
2018-07-15T20:50:50.160Z,79.6
2018-07-15T20:52:50.338Z,80.3
2018-07-15T20:54:50.518Z,81.2
2018-07-15T20:56:50.890Z,81.4
2018-07-15T20:58:50.042Z,81.7
2018-07-15T21:00:50.232Z,81.4
2018-07-15T21:02:50.394Z,82.6
2018-07-15T21:04:50.721Z,82.0
2018-07-15T21:06:50.070Z,82.5
2018-07-15T21:08:50.283Z,82.7
2018-07-15T21:10:50.480Z,82.4
2018-07-15T21:12:50.591Z,82.2
2018-07-15T21:14:50.764Z,82.8
2018-07-15T21:16:50.064Z,82.5
2018-07-15T21:18:50.263Z,83.1
2018-07-15T21:20:50.381Z,83.6
2018-07-15T21:22:50.502Z,84.4
2018-07-15T21:24:50.663Z,84.1
2018-07-15T21:26:50.174Z,84.2
2018-07-15T21:28:50.380Z,84.3
2018-07-15T21:30:50.482Z,85.1
2018-07-15T21:32:50.637Z,85.4
2018-07-15T21:34:50.203Z,86.0
2018-07-15T21:36:50.458Z,85.0
2018-07-15T21:38:50.698Z,84.8
2018-07-15T21:40:50.874Z,85.5
2018-07-15T21:42:50.186Z,85.5
2018-07-15T21:44:50.303Z,85.1
2018-07-15T21:46:50.604Z,85.2
2018-07-15T21:48:50.758Z,83.7
2018-07-15T21:50:50.877Z,82.9
2018-07-15T21:52:50.017Z,82.7
2018-07-15T21:54:50.130Z,82.4
2018-07-15T21:56:50.406Z,81.7
2018-07-15T21:58:50.568Z,81.9
2018-07-15T22:00:50.730Z,83.0
2018-07-15T22:02:50.260Z,83.6
2018-07-15T22:04:50.674Z,83.3
2018-07-15T22:06:50.060Z,83.4
2018-07-15T22:08:50.270Z,84.2
2018-07-15T22:10:50.407Z,84.3
2018-07-15T22:12:50.651Z,85.0
2018-07-15T22:14:50.838Z,84.4
2018-07-15T22:16:50.111Z,84.2
2018-07-15T22:18:50.220Z,84.5
2018-07-15T22:20:50.328Z,84.7
2018-07-15T22:22:50.505Z,85.2
2018-07-15T22:24:50.695Z,85.0
2018-07-15T22:26:50.010Z,84.7
2018-07-15T22:28:50.194Z,85.1
2018-07-15T22:30:50.281Z,85.5
2018-07-15T22:32:50.481Z,85.6
2018-07-15T22:34:50.164Z,86.2
2018-07-15T22:36:50.550Z,85.4
2018-07-15T22:38:50.716Z,85.4
2018-07-15T22:40:49.967Z,85.4
2018-07-15T22:42:50.056Z,84.4
2018-07-15T22:44:50.316Z,84.4
2018-07-15T22:46:50.607Z,84.2
2018-07-15T22:48:50.753Z,84.4
2018-07-15T22:50:50.832Z,84.8
2018-07-15T22:52:50.023Z,85.1
2018-07-15T22:54:50.237Z,85.4
2018-07-15T22:56:50.541Z,85.4
2018-07-15T22:58:50.684Z,85.9
2018-07-15T23:00:50.943Z,86.0
2018-07-15T23:02:50.177Z,86.6
2018-07-15T23:04:50.687Z,87.7
2018-07-15T23:06:49.978Z,87.5
2018-07-15T23:08:50.137Z,87.6
2018-07-15T23:10:50.295Z,87.6
2018-07-15T23:12:50.619Z,87.9
2018-07-15T23:14:50.693Z,87.8
2018-07-15T23:16:49.970Z,87.8
2018-07-15T23:18:50.116Z,88.1
2018-07-15T23:20:50.287Z,87.8
2018-07-15T23:22:50.514Z,87.6
2018-07-15T23:24:50.627Z,88.3
2018-07-15T23:26:50.041Z,88.8
2018-07-15T23:28:50.219Z,88.8
2018-07-15T23:30:50.390Z,89.0
2018-07-15T23:32:50.592Z,89.2
2018-07-15T23:34:49.994Z,89.6
2018-07-15T23:36:50.366Z,89.5
2018-07-15T23:38:50.682Z,89.5
2018-07-15T23:40:50.814Z,89.2
2018-07-15T23:42:50.934Z,89.3
2018-07-15T23:44:50.035Z,89.8
2018-07-15T23:46:50.519Z,89.9
2018-07-15T23:48:50.874Z,89.9
2018-07-15T23:50:50.031Z,90.4
2018-07-15T23:52:50.222Z,90.2
2018-07-15T23:54:50.429Z,90.1
2018-07-15T23:56:50.637Z,90.3
2018-07-15T23:58:50.740Z,90.3
